Terminal Aerodrome Forecast
Issued by NWS

Home | Current Version | Previous Version | Graphics & Text | Print | Product List | Glossary On
Versions: 1 2 3 4 5 6 7 8 9 10 11
000
FTUS43 KICT 241503 AAA
TAFHUT
TAF AMD
KHUT 241503Z 2415/2512 31013KT P6SM BKN025
      TEMPO 2415/2418 SCT025
     FM241800 29012KT P6SM SCT025
     FM242000 27011KT P6SM SKC
     FM250100 19007KT P6SM SCT200=

USA.gov is the U.S. government's official web portal to all federal, state and local government web resources and services.